Time;durP1;ratioP1;P1;durP2;ratioP2;P2;SDS_P1;SDS_P2;PMS_P1;PMS_P2;Temp;Humidity;BMP_temperature;BMP_pressure;BME280_temperature;BME280_humidity;BME280_pressure;Samples;Min_cycle;Max_cycle;Signal;HPM_P1;HPM_P2
2022/09/03 00:01:02;;;;;;;7.90;4.03;;;;;;;11.33;70.13;102093.39;1622020;86;21887;-84
2022/09/03 00:03:43;;;;;;;8.25;4.08;;;;;;;11.36;70.23;102093.11;1625451;88;21039;-84
2022/09/03 00:06:23;;;;;;;6.97;3.85;;;;;;;11.38;70.25;102095.39;1649248;85;21140;-85
2022/09/03 00:09:26;;;;;;;5.87;3.62;;;;;;;11.40;70.24;102098.98;1682696;84;21553;-84
2022/09/03 00:12:10;;;;;;;6.53;3.90;;;;;;;11.40;70.23;102100.31;1645310;86;21856;-84
2022/09/03 00:14:45;;;;;;;5.60;3.40;;;;;;;11.41;70.28;102099.48;1622154;86;21093;-84
2022/09/03 00:17:23;;;;;;;8.68;3.92;;;;;;;11.44;70.38;102100.92;1641970;86;21074;-85
2022/09/03 00:19:59;;;;;;;6.30;3.80;;;;;;;11.50;70.40;102098.96;1624456;86;21078;-85
2022/09/03 00:22:36;;;;;;;5.47;3.60;;;;;;;11.53;70.43;102096.90;1652800;86;21177;-85
2022/09/03 00:25:06;;;;;;;10.63;3.77;;;;;;;11.62;70.51;102102.14;1620642;87;21703;-84
2022/09/03 00:27:36;;;;;;;5.05;3.33;;;;;;;11.72;70.49;102097.25;1642561;86;21229;-85
2022/09/03 00:30:13;;;;;;;8.80;3.67;;;;;;;11.80;70.47;102092.75;1621543;87;21084;-85
2022/09/03 00:32:46;;;;;;;5.90;3.40;;;;;;;11.88;70.44;102099.70;1620745;86;21150;-84
2022/09/03 00:35:30;;;;;;;8.10;3.55;;;;;;;11.94;70.39;102092.06;1675815;82;21058;-85
2022/09/03 00:37:57;;;;;;;6.55;3.20;;;;;;;12.01;70.37;102095.44;1717349;82;21943;-84
2022/09/03 00:40:48;;;;;;;6.10;3.40;;;;;;;12.07;70.30;102094.78;1673371;84;21058;-84
2022/09/03 00:43:51;;;;;;;7.28;3.58;;;;;;;12.13;70.30;102096.34;1694568;83;21704;-84
2022/09/03 00:46:40;;;;;;;6.90;3.42;;;;;;;12.20;70.29;102092.19;1673537;84;21575;-83
2022/09/03 00:49:31;;;;;;;5.65;3.50;;;;;;;12.27;70.20;102098.63;1713353;82;21170;-83
2022/09/03 00:52:15;;;;;;;6.87;3.37;;;;;;;12.29;70.13;102089.91;1715425;82;21763;-83
2022/09/03 00:55:13;;;;;;;7.80;3.35;;;;;;;12.32;70.06;102095.76;1709141;82;22225;-83
2022/09/03 00:58:32;;;;;;;7.08;3.37;;;;;;;12.34;70.11;102091.44;1715670;82;21054;-83
2022/09/03 01:01:03;;;;;;;5.92;3.45;;;;;;;12.38;70.08;102091.59;1673848;84;21514;-84
2022/09/03 01:04:05;;;;;;;5.85;3.17;;;;;;;12.44;70.13;102086.98;1715561;82;20975;-83
2022/09/03 01:06:47;;;;;;;3.80;3.00;;;;;;;12.49;70.09;102093.34;1693307;82;21861;-85
2022/09/03 01:09:39;;;;;;;5.90;3.10;;;;;;;12.51;69.99;102088.13;1673450;84;21086;-86
2022/09/03 01:12:24;;;;;;;5.53;3.52;;;;;;;12.52;69.92;102092.16;1714967;82;21123;-83
2022/09/03 01:15:14;;;;;;;5.17;3.37;;;;;;;12.53;69.88;102104.93;1697910;82;21074;-83
2022/09/03 01:18:20;;;;;;;6.58;3.42;;;;;;;12.53;69.81;102103.18;1673862;84;21561;-83
2022/09/03 01:21:30;;;;;;;6.97;3.08;;;;;;;12.58;69.86;102106.91;1714419;82;21788;-84
2022/09/03 01:24:30;;;;;;;5.92;3.10;;;;;;;12.65;69.83;102106.73;1673640;84;21069;-84
2022/09/03 01:27:14;;;;;;;7.95;2.87;;;;;;;12.72;69.80;102108.74;1700727;82;21062;-84
2022/09/03 01:29:50;;;;;;;;;;;;;;;12.81;69.78;102118.77;1676349;84;21097;-84
2022/09/03 01:32:28;;;;;;;5.60;3.00;;;;;;;12.87;69.66;102118.98;1660503;85;20479;-83
2022/09/03 01:35:18;;;;;;;10.63;3.60;;;;;;;12.88;69.47;102119.48;1660922;85;21747;-84
2022/09/03 01:38:02;;;;;;;7.25;3.22;;;;;;;12.89;69.40;102125.23;1699013;82;21474;-83
2022/09/03 01:42:12;;;;;;;7.10;2.80;;;;;;;12.88;69.40;102128.73;1685204;83;21006;-83
2022/09/03 01:43:36;;;;;;;5.12;2.47;;;;;;;12.81;69.37;102133.30;1711198;82;21386;-83
2022/09/03 01:46:13;;;;;;;4.22;2.62;;;;;;;12.77;69.53;102130.97;1699152;82;21004;-83
2022/09/03 01:48:45;;;;;;;5.90;2.58;;;;;;;12.76;69.63;102132.22;1723076;82;21748;-83
2022/09/03 01:51:20;;;;;;;3.27;2.25;;;;;;;12.74;69.68;102128.63;1707137;82;20964;-82
2022/09/03 01:54:20;;;;;;;4.75;2.35;;;;;;;12.76;69.76;102123.89;1685188;83;21006;-84
2022/09/03 01:57:25;;;;;;;4.65;2.05;;;;;;;12.80;69.80;102127.12;1707219;82;20979;-83
2022/09/03 02:00:00;;;;;;;3.50;1.90;;;;;;;12.86;69.90;102127.78;1690782;82;21477;-83
2022/09/03 02:02:27;;;;;;;8.28;3.87;;;;;;;12.94;69.82;102124.09;1676552;84;23099;-83
2022/09/03 02:05:10;;;;;;;2.55;1.70;;;;;;;12.92;69.70;102122.72;1697109;84;21815;-84
2022/09/03 02:07:46;;;;;;;3.90;2.37;;;;;;;12.93;69.75;102114.36;1685038;83;20975;-84
2022/09/03 02:10:20;;;;;;;4.28;2.62;;;;;;;12.94;69.80;102106.92;1727524;81;20996;-84
2022/09/03 02:12:48;;;;;;;;;;;;;;;12.94;69.67;102114.84;1730143;81;20994;-83
2022/09/03 02:15:18;;;;;;;4.28;2.08;;;;;;;12.96;69.79;102119.77;1733173;81;21577;-83
2022/09/03 02:17:46;;;;;;;3.98;2.02;;;;;;;12.93;69.69;102122.28;1727376;81;21524;-83
2022/09/03 02:20:18;;;;;;;2.37;1.60;;;;;;;12.93;69.76;102120.56;1711028;81;21039;-83
2022/09/03 02:22:46;;;;;;;4.55;1.50;;;;;;;12.94;69.76;102118.38;1727411;81;21123;-83
2022/09/03 02:25:13;;;;;;;5.35;2.20;;;;;;;12.94;69.75;102110.45;1711061;83;21047;-83
2022/09/03 02:27:40;;;;;;;3.92;1.87;;;;;;;12.99;69.82;102110.22;1727493;81;21820;-83
2022/09/03 02:30:08;;;;;;;3.25;1.70;;;;;;;13.03;69.74;102107.27;1727452;81;21046;-83
2022/09/03 02:32:35;;;;;;;3.05;2.12;;;;;;;13.08;69.77;102105.66;1727574;81;20999;-83
2022/09/03 02:35:01;;;;;;;3.17;1.57;;;;;;;13.14;69.83;102099.73;1713159;81;20967;-83
2022/09/03 02:37:28;;;;;;;4.53;1.70;;;;;;;13.18;69.81;102105.17;1719540;80;21004;-83
2022/09/03 02:39:55;;;;;;;4.85;1.82;;;;;;;13.20;69.89;102101.27;1717317;82;21839;-83
2022/09/03 02:42:22;;;;;;;3.50;2.00;;;;;;;13.26;70.06;102104.55;1717178;82;21008;-83
2022/09/03 02:44:54;;;;;;;3.08;1.50;;;;;;;13.30;70.05;102105.13;1717176;82;21437;-83
2022/09/03 02:47:20;;;;;;;2.52;1.45;;;;;;;13.30;69.92;102111.74;1715811;82;20964;-83
2022/09/03 02:49:48;;;;;;;2.55;1.40;;;;;;;13.29;69.87;102106.88;1701007;83;21012;-83
2022/09/03 02:52:15;;;;;;;4.75;1.50;;;;;;;13.31;69.91;102107.87;1696852;83;23129;-83
2022/09/03 02:54:44;;;;;;;3.42;1.62;;;;;;;13.33;70.11;102110.57;1675299;84;20935;-83
2022/09/03 02:57:14;;;;;;;2.85;1.60;;;;;;;13.36;70.28;102109.34;1717234;82;20999;-83
2022/09/03 02:59:43;;;;;;;2.67;1.50;;;;;;;13.35;70.23;102100.95;1675298;84;21035;-83
2022/09/03 03:02:11;;;;;;;2.30;1.65;;;;;;;13.37;70.32;102097.50;1697143;82;20995;-83
2022/09/03 03:04:38;;;;;;;3.65;1.55;;;;;;;13.36;70.27;102098.77;1696762;83;21797;-83
2022/09/03 03:07:06;;;;;;;3.55;1.60;;;;;;;13.35;70.23;102103.16;1652120;85;21066;-83
2022/09/03 03:09:32;;;;;;;3.27;1.95;;;;;;;13.33;70.30;102099.99;1695896;82;21107;-83
2022/09/03 03:12:00;;;;;;;2.25;1.50;;;;;;;13.35;70.39;102098.30;1673600;84;21083;-83
2022/09/03 03:14:26;;;;;;;4.53;1.77;;;;;;;13.36;70.36;102100.08;1715619;82;21086;-83
2022/09/03 03:16:53;;;;;;;2.87;1.67;;;;;;;13.33;70.32;102102.64;1673505;84;21696;-83
2022/09/03 03:19:20;;;;;;;5.30;1.45;;;;;;;13.32;70.24;102101.72;1715460;82;21161;-83
2022/09/03 03:21:47;;;;;;;5.28;2.08;;;;;;;13.30;70.29;102107.77;1673612;84;21074;-84
2022/09/03 03:24:13;;;;;;;2.65;1.30;;;;;;;13.29;70.32;102105.56;1715262;82;21859;-83
2022/09/03 03:26:40;;;;;;;2.60;1.52;;;;;;;13.32;70.39;102102.14;1673604;84;21073;-83
2022/09/03 03:29:07;;;;;;;8.83;1.82;;;;;;;13.33;70.31;102105.28;1694946;83;22646;-83
2022/09/03 03:31:34;;;;;;;2.30;1.30;;;;;;;13.31;70.12;102099.94;1673502;84;20994;-83
2022/09/03 03:34:02;;;;;;;2.35;1.70;;;;;;;13.29;69.88;102104.64;1694961;83;21051;-83
2022/09/03 03:36:31;;;;;;;2.70;1.60;;;;;;;13.27;69.90;102108.98;1673328;83;21082;-83
2022/09/03 03:38:58;;;;;;;4.00;1.40;;;;;;;13.27;69.84;102115.19;1715470;82;21157;-83
2022/09/03 03:41:30;;;;;;;5.67;2.27;;;;;;;13.29;69.81;102113.89;1652010;84;21888;-83
2022/09/03 03:43:59;;;;;;;2.30;1.42;;;;;;;13.29;69.63;102113.50;1717066;82;21047;-83
2022/09/03 03:46:32;;;;;;;2.33;1.30;;;;;;;13.28;69.44;102113.44;1717259;82;21016;-83
2022/09/03 03:48:59;;;;;;;3.25;1.40;;;;;;;13.20;69.16;102107.87;1717366;82;21055;-83
2022/09/03 03:51:25;;;;;;;2.33;1.20;;;;;;;13.20;69.16;102107.87;1717256;82;21520;-83
2022/09/03 03:53:55;;;;;;;2.42;1.20;;;;;;;13.20;69.51;102110.09;1675334;84;21509;-83
2022/09/03 03:56:23;;;;;;;2.85;1.40;;;;;;;13.19;69.50;102113.59;1717008;82;20976;-83
2022/09/03 03:58:50;;;;;;;2.90;1.35;;;;;;;13.16;69.40;102111.26;1673788;84;22230;-83
2022/09/03 04:01:23;;;;;;;1.80;1.30;;;;;;;13.14;69.32;102118.23;1715768;82;21059;-82
2022/09/03 04:03:50;;;;;;;3.67;1.37;;;;;;;13.10;69.16;102117.22;1673586;84;21121;-83
2022/09/03 04:06:18;;;;;;;3.58;1.45;;;;;;;13.33;69.70;102115.43;1715624;82;21718;-83
2022/09/03 04:08:46;;;;;;;3.45;1.40;;;;;;;13.74;69.29;102104.46;1673716;84;21070;-83
2022/09/03 04:11:19;;;;;;;2.77;1.35;;;;;;;13.82;68.33;102096.81;1726131;82;21090;-83
2022/09/03 04:13:46;;;;;;;2.30;1.40;;;;;;;13.71;68.00;102097.77;1701334;82;21085;-83
2022/09/03 04:16:17;;;;;;;2.95;1.57;;;;;;;13.56;67.91;102104.32;1726778;82;21066;-82
2022/09/03 04:19:25;;;;;;;;;;;;;;;;;;;;;
2022/09/03 04:21:47;;;;;;;1.75;1.50;;;;;;;13.29;67.93;102108.61;1719955;82;20992;-83
2022/09/03 04:24:26;;;;;;;2.40;1.35;;;;;;;13.18;68.11;102107.81;1722390;82;20975;-84
2022/09/03 04:26:53;;;;;;;4.47;1.50;;;;;;;13.12;68.22;102113.28;1719100;82;22021;-83
2022/09/03 04:29:20;;;;;;;2.22;1.57;;;;;;;13.07;68.36;102113.13;1717847;82;21050;-83
2022/09/03 04:34:32;;;;;;;4.15;2.05;;;;;;;12.96;68.46;102111.41;1728283;82;21000;-83
2022/09/03 04:36:59;;;;;;;3.15;1.32;;;;;;;12.89;68.43;102119.05;1733575;80;21015;-83
2022/09/03 04:39:26;;;;;;;4.85;1.37;;;;;;;12.79;68.39;102117.39;1753618;80;21008;-83
2022/09/03 04:41:53;;;;;;;3.77;1.40;;;;;;;12.77;68.38;102119.50;1720764;82;20995;-83
2022/09/03 04:44:20;;;;;;;3.10;1.27;;;;;;;12.75;68.50;102114.58;1720991;82;21711;-84
2022/09/03 04:46:47;;;;;;;2.60;1.30;;;;;;;12.76;68.49;102116.37;1719760;82;21462;-84
2022/09/03 04:49:14;;;;;;;3.42;1.42;;;;;;;12.79;68.66;102117.39;1722621;82;20998;-84
2022/09/03 04:51:40;;;;;;;3.92;1.55;;;;;;;12.83;68.73;102120.61;1716108;82;21510;-83
2022/09/03 04:54:08;;;;;;;4.80;1.60;;;;;;;12.86;68.66;102111.92;1714487;82;20984;-81
2022/09/03 04:56:37;;;;;;;2.45;1.50;;;;;;;12.88;68.48;102114.20;1692926;83;21763;-81
2022/09/03 04:59:06;;;;;;;3.60;1.95;;;;;;;12.94;68.57;102119.70;1712503;82;21423;-81
2022/09/03 05:01:34;;;;;;;3.02;1.02;;;;;;;13.01;68.66;102118.20;1686319;83;21995;-84
2022/09/03 05:04:01;;;;;;;1.87;1.30;;;;;;;13.29;68.76;102120.50;1730695;81;21011;-84
2022/09/03 05:06:29;;;;;;;4.58;1.62;;;;;;;14.45;70.31;102117.34;1735115;82;21027;-81
2022/09/03 05:08:55;;;;;;;2.62;1.52;;;;;;;15.44;68.63;102110.51;1732707;81;21799;-82
2022/09/03 05:11:23;;;;;;;3.08;1.40;;;;;;;15.66;66.90;102119.50;1723987;82;21067;-82
2022/09/03 05:13:52;;;;;;;2.50;1.40;;;;;;;15.65;65.99;102124.77;1680939;83;21159;-81
2022/09/03 05:16:19;;;;;;;3.00;2.00;;;;;;;15.71;65.79;102119.61;1715371;82;21039;-82
2022/09/03 05:18:46;;;;;;;2.85;1.57;;;;;;;15.80;65.23;102128.28;1712271;82;20993;-84
2022/09/03 05:21:17;;;;;;;1.77;1.10;;;;;;;15.79;64.78;102127.39;1711151;82;21436;-80
2022/09/03 05:23:45;;;;;;;4.85;1.40;;;;;;;15.74;64.46;102126.37;1645629;83;21023;-82
2022/09/03 05:26:16;;;;;;;3.25;1.35;;;;;;;15.64;64.34;102122.55;1685079;83;21531;-83
2022/09/03 05:28:53;;;;;;;4.17;1.40;;;;;;;15.65;64.42;102119.45;1695959;83;21090;-83
2022/09/03 05:31:14;;;;;;;2.67;1.02;;;;;;;15.67;64.04;102121.72;1690067;83;21138;-81
2022/09/03 05:33:43;;;;;;;2.30;1.20;;;;;;;15.60;63.68;102122.41;1696728;83;21803;-83
2022/09/03 05:36:15;;;;;;;2.70;1.30;;;;;;;15.53;63.73;102124.02;1724088;81;21089;-81
2022/09/03 05:38:42;;;;;;;7.08;1.30;;;;;;;15.57;63.62;102129.88;1713083;80;21067;-81
2022/09/03 05:41:10;;;;;;;3.08;1.57;;;;;;;15.54;63.41;102130.70;1714629;82;21141;-82
2022/09/03 05:43:37;;;;;;;4.72;1.35;;;;;;;15.53;63.64;102126.23;1721787;82;21046;-82
2022/09/03 05:46:10;;;;;;;3.22;1.45;;;;;;;15.59;63.55;102129.48;1729861;81;21798;-82
2022/09/03 05:48:38;;;;;;;1.55;0.98;;;;;;;15.57;63.18;102128.98;1723035;80;21006;-82
2022/09/03 05:51:10;;;;;;;1.52;1.00;;;;;;;15.49;62.67;102128.34;1737117;80;20975;-81
2022/09/03 05:53:39;;;;;;;1.07;0.68;;;;;;;15.38;62.40;102131.14;1736848;80;21566;-83
2022/09/03 05:56:16;;;;;;;2.85;1.10;;;;;;;15.26;62.10;102134.77;1740079;80;20997;-81
2022/09/03 05:58:40;;;;;;;2.25;1.20;;;;;;;15.05;61.79;102135.06;1739350;81;21817;-81
2022/09/03 06:01:19;;;;;;;2.90;1.40;;;;;;;14.92;62.09;102136.45;1732662;81;21488;-81
2022/09/03 06:03:50;;;;;;;2.52;1.05;;;;;;;14.86;62.26;102134.95;1731672;81;21073;-83
2022/09/03 06:06:23;;;;;;;2.72;1.30;;;;;;;14.80;62.14;102132.14;1730996;81;21121;-81
2022/09/03 06:08:50;;;;;;;3.40;1.20;;;;;;;14.74;62.32;102138.16;1730313;81;21077;-81
2022/09/03 06:11:17;;;;;;;1.57;0.80;;;;;;;14.78;62.49;102134.30;1743025;81;22469;-81
2022/09/03 06:13:44;;;;;;;2.67;1.07;;;;;;;14.79;62.28;102128.59;1729413;81;21082;-81
2022/09/03 06:16:12;;;;;;;3.25;0.90;;;;;;;14.76;62.07;102132.47;1736862;81;21086;-81
2022/09/03 06:18:38;;;;;;;1.60;1.20;;;;;;;14.71;61.98;102124.80;1739178;81;21132;-81
2022/09/03 06:21:06;;;;;;;1.35;1.02;;;;;;;14.71;62.02;102125.69;1734910;81;21149;-81
2022/09/03 06:23:35;;;;;;;2.95;1.07;;;;;;;14.72;61.86;102119.98;1743407;80;21800;-80
2022/09/03 06:26:07;;;;;;;1.20;0.88;;;;;;;14.78;61.87;102122.81;1732999;81;21565;-82
2022/09/03 06:28:37;;;;;;;2.20;0.93;;;;;;;14.81;61.79;102128.61;1683817;83;21040;-79
2022/09/03 06:31:05;;;;;;;3.40;1.10;;;;;;;14.79;61.46;102121.97;1728146;81;21011;-79
2022/09/03 06:33:33;;;;;;;3.22;1.00;;;;;;;14.78;61.19;102131.65;1737718;81;21496;-79
2022/09/03 06:36:03;;;;;;;1.22;0.75;;;;;;;14.82;61.27;102135.30;1716214;81;20962;-79
2022/09/03 06:38:32;;;;;;;1.35;0.98;;;;;;;14.83;61.15;102138.43;1723026;81;21015;-79
2022/09/03 06:41:03;;;;;;;1.87;1.10;;;;;;;14.89;60.93;102143.02;1724021;82;21409;-79
2022/09/03 06:43:31;;;;;;;0.95;0.80;;;;;;;14.94;61.05;102145.34;1722030;80;20995;-79
2022/09/03 06:46:15;;;;;;;1.65;0.95;;;;;;;15.13;61.06;102145.48;1730035;82;21039;-79
2022/09/03 06:48:42;;;;;;;2.00;0.62;;;;;;;15.33;60.68;102144.70;1722931;82;21754;-79
2022/09/03 06:51:15;;;;;;;2.62;0.85;;;;;;;15.61;60.33;102145.45;1705526;82;21037;-78
2022/09/03 06:53:46;;;;;;;1.07;0.93;;;;;;;15.85;60.03;102142.58;1725496;82;21012;-79
2022/09/03 06:56:15;;;;;;;1.17;0.93;;;;;;;16.00;59.48;102138.98;1728117;82;21006;-79
2022/09/03 06:58:46;;;;;;;2.08;0.78;;;;;;;16.20;59.31;102142.13;1727683;81;21082;-79
2022/09/03 07:01:16;;;;;;;1.40;0.62;;;;;;;16.32;58.95;102141.52;1718458;82;21766;-79
2022/09/03 07:03:44;;;;;;;0.90;0.60;;;;;;;16.39;58.75;102141.25;1726718;82;21450;-79
2022/09/03 07:06:14;;;;;;;2.00;0.70;;;;;;;16.43;58.29;102142.67;1734697;82;20991;-79
2022/09/03 07:08:41;;;;;;;1.27;0.70;;;;;;;16.46;58.11;102141.42;1731007;81;21011;-79
2022/09/03 07:11:22;;;;;;;3.15;0.80;;;;;;;16.52;58.06;102147.31;1726458;82;21067;-79
2022/09/03 07:13:53;;;;;;;5.90;0.80;;;;;;;16.43;57.56;102150.64;1728239;82;21819;-78
2022/09/03 07:16:28;;;;;;;1.40;0.70;;;;;;;16.35;57.40;102154.89;1723149;82;21749;-79
2022/09/03 07:18:55;;;;;;;1.72;0.80;;;;;;;16.19;57.21;102161.58;1721046;82;21137;-79
2022/09/03 07:21:24;;;;;;;1.17;0.70;;;;;;;16.12;57.36;102159.63;1708164;82;21177;-79
2022/09/03 07:24:01;;;;;;;0.90;0.70;;;;;;;16.04;56.87;102160.77;1721509;82;21089;-79
2022/09/03 07:26:29;;;;;;;1.05;0.60;;;;;;;15.90;56.75;102156.88;1723710;82;21827;-79
2022/09/03 07:28:56;;;;;;;2.02;0.80;;;;;;;15.82;56.91;102163.33;1728341;82;21132;-82
2022/09/03 07:31:34;;;;;;;2.10;0.80;;;;;;;15.66;56.94;102159.76;1721398;82;42528;-81
2022/09/03 07:34:04;;;;;;;0.82;0.80;;;;;;;15.63;57.21;102158.34;1724536;82;21075;-81
2022/09/03 07:36:42;;;;;;;0.98;0.72;;;;;;;15.64;57.21;102162.80;1719394;82;21117;-82
2022/09/03 07:39:10;;;;;;;0.88;0.70;;;;;;;15.60;57.15;102169.78;1737718;79;21496;-81
2022/09/03 07:41:37;;;;;;;2.75;0.70;;;;;;;15.61;57.18;102156.07;1709662;81;21053;-82
2022/09/03 07:44:07;;;;;;;1.92;1.10;;;;;;;15.69;57.25;102161.14;1727874;81;21489;-83
2022/09/03 07:46:35;;;;;;;1.22;0.82;;;;;;;15.81;57.31;102164.17;1722612;81;22022;-82
2022/09/03 07:49:02;;;;;;;1.30;0.90;;;;;;;15.89;56.99;102151.98;1721320;81;21338;-82
2022/09/03 07:51:34;;;;;;;3.35;1.42;;;;;;;16.01;56.90;102157.12;1727888;81;21664;-82
2022/09/03 07:54:03;;;;;;;3.25;0.90;;;;;;;16.15;56.84;102160.15;1729625;81;21449;-82
2022/09/03 07:56:30;;;;;;;2.67;0.90;;;;;;;16.28;56.51;102164.45;1740978;81;21019;-82
2022/09/03 07:58:57;;;;;;;3.45;0.95;;;;;;;16.32;56.20;102156.13;1724950;80;21042;-83
2022/09/03 08:01:27;;;;;;;1.27;1.00;;;;;;;16.39;55.96;102165.16;1731373;81;21140;-86
2022/09/03 08:03:54;;;;;;;3.33;1.00;;;;;;;16.38;55.72;102162.91;1740619;81;22361;-87
2022/09/03 08:06:24;;;;;;;1.90;0.70;;;;;;;16.41;55.62;102169.64;1738292;80;21023;-85
2022/09/03 08:09:03;;;;;;;2.02;1.20;;;;;;;16.50;55.61;102171.63;1738647;80;21045;-84
2022/09/03 08:11:30;;;;;;;3.27;1.40;;;;;;;16.65;55.58;102166.66;1731650;81;21801;-86
2022/09/03 08:14:01;;;;;;;2.77;1.10;;;;;;;16.75;55.27;102167.75;1738500;81;20992;-85
2022/09/03 08:16:30;;;;;;;1.77;1.10;;;;;;;16.87;55.49;102159.17;1733203;81;21775;-85
2022/09/03 08:18:57;;;;;;;3.08;1.20;;;;;;;17.10;55.30;102165.89;1735035;81;21109;-85
2022/09/03 08:21:24;;;;;;;2.02;0.82;;;;;;;17.22;55.18;102167.89;1731580;81;21114;-85
2022/09/03 08:23:53;;;;;;;1.82;0.78;;;;;;;17.33;55.01;102169.89;1734120;81;21934;-85
2022/09/03 08:26:20;;;;;;;1.42;0.68;;;;;;;17.46;54.76;102167.93;1710003;82;21008;-85
2022/09/03 08:28:47;;;;;;;0.95;0.80;;;;;;;17.50;54.47;102169.77;1667591;83;21702;-85
2022/09/03 08:31:19;;;;;;;1.80;0.75;;;;;;;17.51;54.10;102173.33;1669348;83;21022;-86
2022/09/03 08:33:49;;;;;;;2.45;0.80;;;;;;;17.52;53.59;102172.03;1693010;83;21611;-86
2022/09/03 08:36:18;;;;;;;1.90;0.70;;;;;;;17.37;53.04;102181.05;1683876;83;21225;-85
2022/09/03 08:38:46;;;;;;;3.62;0.68;;;;;;;17.20;52.73;102175.39;1713425;80;21115;-85
2022/09/03 08:41:24;;;;;;;0.68;0.60;;;;;;;17.15;52.59;102173.06;1689427;83;22705;-86
2022/09/03 08:44:18;;;;;;;1.90;0.70;;;;;;;17.05;52.54;102174.64;1723326;82;21210;-87
2022/09/03 08:46:59;;;;;;;0.98;0.72;;;;;;;17.01;52.54;102176.33;1718432;82;21066;-87
2022/09/03 08:49:46;;;;;;;2.72;0.70;;;;;;;16.88;52.15;102172.95;1709328;82;21568;-86
2022/09/03 08:52:37;;;;;;;0.95;0.70;;;;;;;16.83;51.97;102172.83;1720908;82;21340;-85
2022/09/03 08:55:24;;;;;;;1.32;0.70;;;;;;;16.77;51.97;102171.78;1670347;83;21774;-87
2022/09/03 08:58:13;;;;;;;0.68;0.68;;;;;;;16.69;52.03;102171.17;1712195;82;21179;-92
2022/09/03 09:01:14;;;;;;;4.78;1.00;;;;;;;16.73;52.31;102177.91;1715176;82;21110;-85
2022/09/03 09:04:25;;;;;;;1.00;0.65;;;;;;;16.77;52.03;102188.63;1722097;82;21058;-85
2022/09/03 09:07:09;;;;;;;0.88;0.62;;;;;;;16.70;51.82;102184.03;1715487;82;21094;-87
2022/09/03 09:10:08;;;;;;;0.98;0.60;;;;;;;16.64;51.75;102184.78;1724604;82;21996;-86
2022/09/03 09:12:52;;;;;;;0.57;0.55;;;;;;;16.56;51.57;102174.42;1721291;82;21125;-88
2022/09/03 09:15:33;;;;;;;0.90;0.70;;;;;;;16.49;51.49;102180.45;1718734;82;21081;-88
2022/09/03 09:18:17;;;;;;;0.85;0.40;;;;;;;16.44;51.61;102194.05;1719468;82;21512;-85
2022/09/03 09:21:07;;;;;;;1.57;0.70;;;;;;;16.41;51.52;102186.91;1718992;81;21500;-85
2022/09/03 09:23:46;;;;;;;0.75;0.62;;;;;;;16.39;51.61;102184.66;1721486;82;21625;-85
2022/09/03 09:26:18;;;;;;;0.70;0.70;;;;;;;16.45;51.86;102183.46;1715549;81;21095;-85
2022/09/03 09:28:59;;;;;;;0.50;0.40;;;;;;;16.52;51.77;102180.53;1720447;82;21078;-87
2022/09/03 09:31:20;;;;;;;1.37;0.70;;;;;;;16.55;51.57;102177.03;1707272;82;21073;-86
2022/09/03 09:33:46;;;;;;;1.10;0.70;;;;;;;16.54;51.36;102173.92;1723750;82;21603;-84
2022/09/03 09:36:21;;;;;;;1.50;0.60;;;;;;;16.55;51.35;102179.69;1718705;82;21677;-87
2022/09/03 09:38:52;;;;;;;1.72;0.42;;;;;;;16.53;51.36;102176.99;1697286;82;21103;-87
2022/09/03 09:41:28;;;;;;;1.82;0.78;;;;;;;16.53;51.19;102176.99;1684600;84;21131;-86
2022/09/03 09:44:01;;;;;;;0.75;0.70;;;;;;;16.56;51.26;102177.08;1681461;83;21234;-86
2022/09/03 09:46:38;;;;;;;0.47;0.47;;;;;;;16.57;51.09;102176.64;1686524;84;21145;-85
2022/09/03 09:49:44;;;;;;;1.12;0.50;;;;;;;16.51;51.01;102180.05;1689550;83;21765;-87
2022/09/03 09:52:16;;;;;;;0.60;0.60;;;;;;;16.50;51.04;102178.27;1682619;84;21627;-87
2022/09/03 09:55:08;;;;;;;1.72;0.80;;;;;;;16.49;51.11;102176.46;1688673;83;21314;-87
2022/09/03 09:57:36;;;;;;;1.32;0.68;;;;;;;16.55;51.26;102176.59;1685228;83;21081;-86
2022/09/03 10:00:09;;;;;;;1.10;0.80;;;;;;;16.60;51.22;102177.61;1687275;83;21072;-86
2022/09/03 10:02:39;;;;;;;1.13;0.63;;;;;;;16.60;51.20;102176.72;1650942;84;21883;-86
2022/09/03 10:05:26;;;;;;;1.62;0.62;;;;;;;16.63;51.34;102172.78;1680868;84;21523;-85
2022/09/03 10:08:24;;;;;;;1.98;0.65;;;;;;;16.65;51.35;102169.31;1676201;83;21104;-84
2022/09/03 10:10:49;;;;;;;1.20;0.57;;;;;;;16.65;51.25;102166.66;1672545;84;21084;-84
2022/09/03 10:13:27;;;;;;;0.47;0.47;;;;;;;16.66;51.51;102174.19;1674578;84;21087;-87
2022/09/03 10:16:26;;;;;;;1.12;0.62;;;;;;;16.72;51.44;102172.99;1671039;84;21769;-85
2022/09/03 10:19:10;;;;;;;1.05;0.72;;;;;;;16.71;51.31;102161.47;1672543;84;21058;-85
2022/09/03 10:22:13;;;;;;;1.98;0.98;;;;;;;16.78;51.45;102170.49;1635341;84;27154;-84
2022/09/03 10:25:00;;;;;;;1.47;0.93;;;;;;;16.75;51.30;102171.74;1673095;84;21659;-85
2022/09/03 10:27:27;;;;;;;0.50;0.50;;;;;;;16.81;51.52;102170.53;1673556;84;21017;-84
2022/09/03 10:29:54;;;;;;;0.88;0.50;;;;;;;16.96;51.43;102177.98;1675772;84;21742;-84
2022/09/03 10:32:32;;;;;;;1.40;0.80;;;;;;;17.02;51.28;102167.47;1674716;84;20973;-84
2022/09/03 10:35:21;;;;;;;2.90;2.50;;;;;;;17.15;51.41;102165.08;1673960;84;21073;-84
2022/09/03 10:37:55;;;;;;;3.15;1.75;;;;;;;17.27;51.30;102156.91;1650316;84;22279;-85
2022/09/03 10:40:32;;;;;;;2.20;1.45;;;;;;;17.28;51.15;102152.48;1704555;82;21034;-88
2022/09/03 10:43:22;;;;;;;1.75;0.85;;;;;;;17.39;51.22;102158.02;1677101;83;21788;-85
2022/09/03 10:45:56;;;;;;;2.02;0.70;;;;;;;17.49;51.21;102152.91;1708710;82;21071;-85
2022/09/03 10:48:43;;;;;;;1.07;0.70;;;;;;;17.51;50.84;102155.58;1708960;82;21082;-86
2022/09/03 10:51:21;;;;;;;1.65;1.10;;;;;;;17.52;50.94;102165.37;1720801;82;21113;-89
2022/09/03 10:54:30;;;;;;;1.05;0.93;;;;;;;17.43;50.23;102167.41;1709294;82;21091;-82
2022/09/03 10:57:22;;;;;;;1.35;0.72;;;;;;;17.44;50.49;102164.34;1633334;86;21616;-95
2022/09/03 11:00:12;;;;;;;1.85;0.70;;;;;;;17.51;50.43;102156.02;1635766;86;21183;-87
2022/09/03 11:02:41;;;;;;;1.80;0.82;;;;;;;17.52;49.93;102152.06;1699814;82;21086;-83
2022/09/03 11:05:49;;;;;;;0.57;0.50;;;;;;;17.54;49.87;102148.10;1713361;82;21110;-82
2022/09/03 11:09:00;;;;;;;1.02;0.60;;;;;;;17.57;49.16;102149.06;1718313;82;21101;-81
2022/09/03 11:11:53;;;;;;;0.72;0.53;;;;;;;17.59;49.34;102141.11;1712270;82;21684;-83
2022/09/03 11:14:43;;;;;;;1.47;0.60;;;;;;;17.62;49.22;102139.36;1713560;82;21145;-82
2022/09/03 11:17:23;;;;;;;1.57;0.70;;;;;;;17.49;48.85;102142.27;1719874;82;21034;-82
2022/09/03 11:20:19;;;;;;;0.72;0.50;;;;;;;17.57;48.77;102150.80;1715832;82;21073;-81
2022/09/03 11:22:46;;;;;;;0.82;0.55;;;;;;;17.62;49.04;102147.80;1721645;82;21020;-83
2022/09/03 11:25:14;;;;;;;1.12;0.55;;;;;;;17.57;48.82;102137.08;1722596;82;21692;-84
2022/09/03 11:27:46;;;;;;;1.00;0.80;;;;;;;17.58;48.81;102134.86;1716084;82;20971;-87
2022/09/03 11:30:14;;;;;;;0.57;0.57;;;;;;;17.64;48.94;102131.00;1681959;83;21561;-81
2022/09/03 11:32:58;;;;;;;0.82;0.60;;;;;;;17.69;48.92;102129.29;1719877;82;21092;-92
2022/09/03 11:35:36;;;;;;;2.70;1.00;;;;;;;17.72;48.95;102132.47;1715320;82;21008;-96
2022/09/03 11:38:19;;;;;;;0.80;0.80;;;;;;;17.81;49.02;102125.05;1712387;82;21772;-95
2022/09/03 11:41:20;;;;;;;0.70;0.70;;;;;;;17.86;49.34;102116.75;1717403;82;21122;-93
2022/09/03 11:43:49;;;;;;;2.83;0.80;;;;;;;18.00;49.18;102126.28;1712930;82;21153;-94
2022/09/03 11:46:27;;;;;;;0.68;0.68;;;;;;;17.80;49.21;102121.50;1733504;81;21078;-94
2022/09/03 11:49:10;;;;;;;1.07;0.70;;;;;;;17.72;49.29;102118.23;1690695;83;21167;-93
2022/09/03 11:51:40;;;;;;;1.27;0.70;;;;;;;17.65;49.26;102123.90;1697076;82;21783;-93
2022/09/03 11:54:13;;;;;;;1.98;0.95;;;;;;;17.64;49.06;102124.75;1726390;82;21137;-95
2022/09/03 11:56:40;;;;;;;1.20;1.02;;;;;;;17.57;49.11;102116.19;1722689;82;21753;-94
2022/09/03 11:59:21;;;;;;;1.42;0.57;;;;;;;17.53;49.22;102119.27;1717038;81;21529;-94
2022/09/03 12:02:13;;;;;;;0.70;0.30;;;;;;;17.37;49.05;102114.52;1717508;82;21135;-94
2022/09/03 12:05:33;;;;;;;3.92;1.32;;;;;;;17.28;49.33;102113.89;1724363;82;21710;-93
2022/09/03 12:08:17;;;;;;;2.12;1.15;;;;;;;17.20;49.48;102111.09;1698208;82;21082;-88